createdAt,value
2023-02-09T00:01:44.538Z,-2.45
2023-02-09T00:04:12.470Z,-2.52
2023-02-09T00:06:40.381Z,-2.59
2023-02-09T00:09:08.160Z,-2.68
2023-02-09T00:12:02.081Z,-2.76
2023-02-09T00:14:32.094Z,-2.83
2023-02-09T00:17:04.031Z,-2.91
2023-02-09T00:19:33.436Z,-2.94
2023-02-09T00:22:01.654Z,-2.98
2023-02-09T00:24:29.418Z,-3.03
2023-02-09T00:26:57.315Z,-3.09
2023-02-09T00:29:25.562Z,-3.18
2023-02-09T00:31:53.410Z,-3.22
2023-02-09T00:34:21.385Z,-3.25
2023-02-09T00:36:49.483Z,-3.28
2023-02-09T00:39:17.859Z,-3.30
2023-02-09T00:42:03.977Z,-3.28
2023-02-09T00:44:32.615Z,-3.27
2023-02-09T00:47:00.852Z,-3.28
2023-02-09T00:49:29.651Z,-3.31
2023-02-09T00:51:58.153Z,-3.34
2023-02-09T00:54:26.909Z,-3.40
2023-02-09T00:56:54.822Z,-3.44
2023-02-09T00:59:22.719Z,-3.49
2023-02-09T01:01:50.855Z,-3.53
2023-02-09T01:04:18.646Z,-3.54
2023-02-09T01:06:48.298Z,-3.53
2023-02-09T01:09:17.781Z,-3.51
2023-02-09T01:11:45.558Z,-3.48
2023-02-09T01:14:13.441Z,-3.46
2023-02-09T01:16:41.553Z,-3.44
2023-02-09T01:19:11.291Z,-3.42
2023-02-09T01:21:38.963Z,-3.39
2023-02-09T01:24:07.148Z,-3.40
2023-02-09T01:26:35.027Z,-3.43
2023-02-09T01:29:04.018Z,-3.42
2023-02-09T01:31:33.661Z,-3.39
2023-02-09T01:34:02.833Z,-3.37
2023-02-09T01:36:31.672Z,-3.41
2023-02-09T01:39:00.318Z,-3.47
2023-02-09T01:41:28.922Z,-3.52
2023-02-09T01:43:58.836Z,-3.54
2023-02-09T01:46:28.156Z,-3.52
2023-02-09T01:49:03.187Z,-3.47
2023-02-09T01:51:33.208Z,-3.41
2023-02-09T01:54:04.983Z,-3.38
2023-02-09T01:56:32.779Z,-3.36
2023-02-09T01:59:01.138Z,-3.34
2023-02-09T02:01:29.496Z,-3.37
2023-02-09T02:03:57.417Z,-3.39
2023-02-09T02:06:25.902Z,-3.43
2023-02-09T02:08:57.208Z,-3.46
2023-02-09T02:11:27.693Z,-3.47
2023-02-09T02:13:58.806Z,-3.48
2023-02-09T02:16:45.234Z,-3.49
2023-02-09T02:19:22.006Z,-3.52
2023-02-09T02:22:02.223Z,-3.52
2023-02-09T02:24:45.206Z,-3.52
2023-02-09T02:27:33.618Z,-3.57
2023-02-09T02:30:20.421Z,-3.63
2023-02-09T02:33:07.393Z,-3.68
2023-02-09T02:35:35.625Z,-3.72
2023-02-09T02:38:12.165Z,-3.75
2023-02-09T02:40:40.153Z,-3.78
2023-02-09T02:43:12.988Z,-3.83
2023-02-09T02:45:41.330Z,-3.85
2023-02-09T02:48:20.939Z,-3.88
2023-02-09T02:51:15.027Z,-3.91
2023-02-09T02:53:44.799Z,-3.93
2023-02-09T02:56:15.343Z,-3.99
2023-02-09T02:58:45.464Z,-4.00
2023-02-09T03:01:15.419Z,-4.01
2023-02-09T03:03:45.159Z,-4.02
2023-02-09T03:06:14.083Z,-4.03
2023-02-09T03:08:52.742Z,-4.02
2023-02-09T03:11:21.569Z,-4.00
2023-02-09T03:14:00.936Z,-4.00
2023-02-09T03:16:47.525Z,-3.98
2023-02-09T03:19:30.113Z,-3.99
2023-02-09T03:21:58.270Z,-4.00
2023-02-09T03:24:36.971Z,-4.06
2023-02-09T03:27:10.267Z,-4.12
2023-02-09T03:29:39.072Z,-4.14
2023-02-09T03:32:07.341Z,-4.16
2023-02-09T03:34:35.885Z,-4.22
2023-02-09T03:37:03.742Z,-4.23
2023-02-09T03:39:31.712Z,-4.26
2023-02-09T03:41:59.677Z,-4.28
2023-02-09T03:44:27.698Z,-4.32
2023-02-09T03:47:00.671Z,-4.37
2023-02-09T03:49:30.415Z,-4.41
2023-02-09T03:52:00.790Z,-4.44
2023-02-09T03:54:29.874Z,-4.46
2023-02-09T03:56:58.420Z,-4.42
2023-02-09T03:59:27.345Z,-4.39
2023-02-09T04:01:56.514Z,-4.39
2023-02-09T04:04:25.314Z,-4.36
2023-02-09T04:06:53.588Z,-4.32
2023-02-09T04:09:21.606Z,-4.32
2023-02-09T04:11:49.550Z,-4.33
2023-02-09T04:14:17.887Z,-4.37
2023-02-09T04:16:45.807Z,-4.39
2023-02-09T04:19:13.929Z,-4.37
2023-02-09T04:21:41.840Z,-4.34
2023-02-09T04:24:09.566Z,-4.35
2023-02-09T04:26:37.691Z,-4.41
2023-02-09T04:29:05.509Z,-4.48
2023-02-09T04:31:34.948Z,-4.52
2023-02-09T04:34:02.871Z,-4.54
2023-02-09T04:36:31.475Z,-4.52
2023-02-09T04:38:59.518Z,-4.48
2023-02-09T04:41:27.231Z,-4.43
2023-02-09T04:43:55.195Z,-4.38
2023-02-09T04:46:23.257Z,-4.34
2023-02-09T04:48:51.364Z,-4.34
2023-02-09T04:51:19.135Z,-4.33
2023-02-09T04:53:47.072Z,-4.32
2023-02-09T04:56:15.906Z,-4.33
2023-02-09T04:59:03.302Z,-4.35
2023-02-09T05:01:31.490Z,-4.36
2023-02-09T05:03:59.393Z,-4.36
2023-02-09T05:06:27.305Z,-4.37
2023-02-09T05:08:55.107Z,-4.40
2023-02-09T05:11:25.291Z,-4.45
2023-02-09T05:13:53.475Z,-4.52
2023-02-09T05:16:21.266Z,-4.57
2023-02-09T05:18:50.888Z,-4.64
2023-02-09T05:21:19.003Z,-4.74
2023-02-09T05:23:47.151Z,-4.87
2023-02-09T05:26:15.269Z,-4.93
2023-02-09T05:28:43.004Z,-4.95
2023-02-09T05:31:11.010Z,-4.96
2023-02-09T05:33:38.651Z,-4.99
2023-02-09T05:36:09.839Z,-4.95
2023-02-09T05:38:37.801Z,-4.80
2023-02-09T05:41:06.677Z,-4.75
2023-02-09T05:43:34.538Z,-4.47
2023-02-09T05:46:02.805Z,-4.36
2023-02-09T05:48:30.915Z,-4.37
2023-02-09T05:50:58.784Z,-4.44
2023-02-09T05:53:26.744Z,-4.57
2023-02-09T05:55:54.698Z,-4.68
2023-02-09T05:58:22.722Z,-4.75
2023-02-09T06:00:50.502Z,-4.82
2023-02-09T06:03:18.442Z,-4.85
2023-02-09T06:05:46.339Z,-4.91
2023-02-09T06:08:14.260Z,-5.01
2023-02-09T06:10:42.116Z,-5.05
2023-02-09T06:13:09.811Z,-5.02
2023-02-09T06:15:37.786Z,-4.99
2023-02-09T06:18:05.602Z,-4.98
2023-02-09T06:20:34.071Z,-4.99
2023-02-09T06:23:01.875Z,-4.98
2023-02-09T06:25:29.885Z,-4.96
2023-02-09T06:27:58.275Z,-4.89
2023-02-09T06:30:26.320Z,-4.84
2023-02-09T06:32:54.523Z,-4.74
2023-02-09T06:35:22.341Z,-4.65
2023-02-09T06:37:50.160Z,-4.57
2023-02-09T06:40:17.998Z,-4.53
2023-02-09T06:42:45.770Z,-4.49
2023-02-09T06:45:14.577Z,-4.46
2023-02-09T06:47:43.589Z,-4.42
2023-02-09T06:50:12.366Z,-4.37
2023-02-09T06:52:40.833Z,-4.32
2023-02-09T06:55:08.961Z,-4.26
2023-02-09T06:57:36.712Z,-4.20
2023-02-09T07:00:05.916Z,-4.16
2023-02-09T07:02:34.008Z,-4.12
2023-02-09T07:05:02.379Z,-4.08
2023-02-09T07:07:30.144Z,-4.04
2023-02-09T07:09:58.020Z,-4.00
2023-02-09T07:12:26.027Z,-3.97
2023-02-09T07:14:53.887Z,-3.94
2023-02-09T07:17:21.967Z,-3.89
2023-02-09T07:19:50.148Z,-3.86
2023-02-09T07:22:18.257Z,-3.84
2023-02-09T07:24:46.858Z,-3.83
2023-02-09T07:27:14.778Z,-3.80
2023-02-09T07:29:42.611Z,-3.80
2023-02-09T07:32:10.802Z,-3.78
2023-02-09T07:34:38.826Z,-3.75
2023-02-09T07:37:06.951Z,-3.71
2023-02-09T07:39:34.963Z,-3.67
2023-02-09T07:42:03.422Z,-3.60
2023-02-09T07:44:47.065Z,-3.51
2023-02-09T07:47:14.913Z,-3.46
2023-02-09T07:49:42.786Z,-3.43
2023-02-09T07:52:10.662Z,-3.40
2023-02-09T07:54:38.763Z,-3.37
2023-02-09T07:57:06.547Z,-3.34
2023-02-09T07:59:34.474Z,-3.32
2023-02-09T08:02:02.531Z,-3.26
2023-02-09T08:04:30.829Z,-3.17
2023-02-09T08:06:58.748Z,-3.11
2023-02-09T08:09:27.097Z,-3.04
2023-02-09T08:11:58.790Z,-3.00
2023-02-09T08:14:29.031Z,-2.99
2023-02-09T08:17:18.852Z,-2.98
2023-02-09T08:19:48.563Z,-2.95
2023-02-09T08:22:16.905Z,-2.89
2023-02-09T08:24:45.088Z,-2.79
2023-02-09T08:27:12.854Z,-2.69
2023-02-09T08:29:40.960Z,-2.63
2023-02-09T08:32:08.875Z,-2.56
2023-02-09T08:34:37.026Z,-2.50
2023-02-09T08:37:04.930Z,-2.42
2023-02-09T08:39:32.940Z,-2.34
2023-02-09T08:42:00.723Z,-2.26
2023-02-09T08:44:28.569Z,-2.20
2023-02-09T08:46:56.593Z,-2.13
2023-02-09T08:49:24.549Z,-2.04
2023-02-09T08:51:52.482Z,-1.96
2023-02-09T08:54:20.442Z,-1.90
2023-02-09T08:56:48.355Z,-1.85
2023-02-09T08:59:17.891Z,-1.81
2023-02-09T09:01:48.119Z,-1.76
2023-02-09T09:04:15.895Z,-1.69
2023-02-09T09:06:43.880Z,-1.61
2023-02-09T09:09:12.070Z,-1.53
2023-02-09T09:11:40.089Z,-1.45
2023-02-09T09:14:08.143Z,-1.38
2023-02-09T09:16:35.996Z,-1.29
2023-02-09T09:19:04.695Z,-1.18
2023-02-09T09:21:33.478Z,-1.08
2023-02-09T09:24:01.345Z,-0.99
2023-02-09T09:26:29.322Z,-0.89
2023-02-09T09:28:57.127Z,-0.80
2023-02-09T09:31:25.258Z,-0.71
2023-02-09T09:33:53.544Z,-0.63
2023-02-09T09:36:21.469Z,-0.54
2023-02-09T09:38:49.397Z,-0.45
2023-02-09T09:41:19.938Z,-0.37
2023-02-09T09:43:48.539Z,-0.28
2023-02-09T09:46:21.040Z,-0.21
2023-02-09T09:48:56.571Z,-0.13
2023-02-09T09:51:39.612Z,-0.05
2023-02-09T09:54:12.888Z,0.01
2023-02-09T09:56:41.787Z,0.04
2023-02-09T09:59:16.585Z,0.06
2023-02-09T10:01:44.766Z,0.09
2023-02-09T10:04:14.476Z,0.14
2023-02-09T10:06:43.928Z,0.19
2023-02-09T10:09:26.892Z,0.23
2023-02-09T10:12:00.716Z,0.26
2023-02-09T10:14:28.522Z,0.30
2023-02-09T10:16:56.365Z,0.33
2023-02-09T10:19:26.095Z,0.36
2023-02-09T10:21:54.394Z,0.40
2023-02-09T10:24:23.953Z,0.45
2023-02-09T10:27:05.742Z,0.61
2023-02-09T10:29:35.212Z,0.70
2023-02-09T10:32:22.965Z,0.73
2023-02-09T10:34:52.607Z,0.77
2023-02-09T10:37:22.484Z,0.77
2023-02-09T10:39:55.399Z,0.75
2023-02-09T10:42:25.656Z,0.72
2023-02-09T10:44:55.015Z,0.75
2023-02-09T10:47:23.740Z,0.78
2023-02-09T10:50:10.424Z,0.79
2023-02-09T10:52:58.522Z,0.80
2023-02-09T10:55:38.133Z,0.84
2023-02-09T10:58:09.587Z,0.86
2023-02-09T11:01:10.658Z,0.84
2023-02-09T11:03:55.424Z,0.87
2023-02-09T11:06:24.206Z,0.90
2023-02-09T11:09:22.998Z,0.93
2023-02-09T11:12:39.472Z,0.96
2023-02-09T11:15:32.929Z,0.99
2023-02-09T11:18:49.136Z,0.98
2023-02-09T11:22:05.504Z,1.01
2023-02-09T11:24:48.823Z,1.05
2023-02-09T11:27:44.099Z,1.08
2023-02-09T11:30:17.836Z,1.13
2023-02-09T11:33:06.918Z,1.12
2023-02-09T11:35:52.068Z,1.17
2023-02-09T11:38:26.742Z,1.21
2023-02-09T11:40:57.563Z,1.25
2023-02-09T11:43:25.479Z,1.26
2023-02-09T11:45:58.371Z,1.28
2023-02-09T11:48:29.365Z,1.28
2023-02-09T11:50:57.254Z,1.31
2023-02-09T11:53:35.261Z,1.36
2023-02-09T11:56:05.006Z,1.45
2023-02-09T11:58:36.884Z,1.56
2023-02-09T12:01:22.505Z,1.66
2023-02-09T12:04:16.327Z,1.75
2023-02-09T12:06:55.423Z,1.83
2023-02-09T12:09:26.941Z,1.88
2023-02-09T12:12:06.553Z,1.92
2023-02-09T12:14:55.575Z,1.90
2023-02-09T12:17:30.343Z,1.91
2023-02-09T12:19:59.519Z,1.96
2023-02-09T12:22:33.674Z,2.03
2023-02-09T12:25:19.974Z,2.09
2023-02-09T12:28:10.490Z,2.15
2023-02-09T12:30:45.089Z,2.24
2023-02-09T12:33:25.205Z,2.27
2023-02-09T12:36:05.197Z,2.30
2023-02-09T12:38:56.004Z,2.34
2023-02-09T12:41:29.152Z,2.35
2023-02-09T12:44:11.875Z,2.40
2023-02-09T12:46:45.245Z,2.43
2023-02-09T12:49:27.622Z,2.44
2023-02-09T12:52:01.458Z,2.48
2023-02-09T12:54:29.366Z,2.53
2023-02-09T12:57:16.165Z,2.53
2023-02-09T12:59:50.405Z,2.53
2023-02-09T13:02:26.342Z,2.54
2023-02-09T13:04:58.303Z,2.58
2023-02-09T13:07:44.755Z,2.60
2023-02-09T13:10:18.711Z,2.59
2023-02-09T13:12:50.637Z,2.58
2023-02-09T13:15:18.908Z,2.56
2023-02-09T13:18:12.774Z,2.57
2023-02-09T13:20:54.520Z,2.56
2023-02-09T13:23:34.674Z,2.57
2023-02-09T13:26:20.396Z,2.62
2023-02-09T13:28:48.283Z,2.62
2023-02-09T13:31:22.772Z,2.62
2023-02-09T13:33:52.397Z,2.62
2023-02-09T13:36:26.231Z,2.59
2023-02-09T13:38:54.326Z,2.62
2023-02-09T13:41:27.307Z,2.64
2023-02-09T13:43:55.583Z,2.68
2023-02-09T13:46:25.048Z,2.71
2023-02-09T13:48:53.179Z,2.72
2023-02-09T13:51:21.300Z,2.73
2023-02-09T13:53:59.250Z,2.73
2023-02-09T13:56:27.609Z,2.75
2023-02-09T13:58:56.058Z,2.79
2023-02-09T14:01:31.550Z,2.79
2023-02-09T14:04:05.437Z,2.77
2023-02-09T14:06:44.987Z,2.77
2023-02-09T14:09:20.116Z,2.79
2023-02-09T14:11:52.388Z,2.82
2023-02-09T14:14:28.744Z,2.85
2023-02-09T14:17:22.872Z,2.86
2023-02-09T14:19:53.371Z,2.84
2023-02-09T14:22:32.362Z,2.79
2023-02-09T14:25:00.533Z,2.75
2023-02-09T14:27:29.564Z,2.69
2023-02-09T14:29:57.479Z,2.67
2023-02-09T14:32:35.305Z,2.65
2023-02-09T14:35:29.378Z,2.67
2023-02-09T14:37:58.984Z,2.66
2023-02-09T14:40:26.758Z,2.63
2023-02-09T14:43:07.038Z,2.61
2023-02-09T14:45:37.468Z,2.60
2023-02-09T14:48:21.881Z,2.58
2023-02-09T14:50:50.976Z,2.58
2023-02-09T14:53:19.177Z,2.54
2023-02-09T14:55:47.699Z,2.45
2023-02-09T14:58:20.047Z,2.37
2023-02-09T15:00:48.321Z,2.29
2023-02-09T15:03:16.125Z,2.23
2023-02-09T15:05:44.579Z,2.17
2023-02-09T15:08:16.144Z,2.23
2023-02-09T15:10:45.406Z,2.20
2023-02-09T15:13:15.175Z,2.14
2023-02-09T15:15:43.460Z,2.09
2023-02-09T15:18:22.303Z,2.06
2023-02-09T15:20:50.648Z,2.00
2023-02-09T15:23:18.370Z,1.98
2023-02-09T15:25:46.453Z,1.97
2023-02-09T15:28:24.652Z,1.94
2023-02-09T15:30:52.708Z,1.89
2023-02-09T15:33:20.821Z,1.81
2023-02-09T15:35:48.848Z,1.77
2023-02-09T15:38:18.572Z,1.70
2023-02-09T15:41:06.086Z,1.63
2023-02-09T15:43:53.050Z,1.57
2023-02-09T15:46:39.887Z,1.53
2023-02-09T15:49:07.862Z,1.52
2023-02-09T15:51:38.430Z,1.51
2023-02-09T15:54:12.328Z,1.51
2023-02-09T15:56:40.643Z,1.49
2023-02-09T15:59:16.187Z,1.49
2023-02-09T16:01:44.555Z,1.45
2023-02-09T16:04:14.177Z,1.37
2023-02-09T16:06:48.487Z,1.28
2023-02-09T16:09:18.257Z,1.21
2023-02-09T16:11:48.665Z,1.15
2023-02-09T16:14:18.550Z,1.11
2023-02-09T16:16:46.721Z,1.09
2023-02-09T16:19:14.678Z,1.06
2023-02-09T16:21:44.057Z,1.02
2023-02-09T16:24:18.809Z,0.99
2023-02-09T16:26:47.220Z,0.94
2023-02-09T16:29:15.849Z,0.89
2023-02-09T16:31:44.080Z,0.85
2023-02-09T16:34:15.488Z,0.82
2023-02-09T16:36:43.728Z,0.89
2023-02-09T16:39:18.805Z,0.88
2023-02-09T16:41:47.346Z,0.83
2023-02-09T16:44:22.476Z,0.78
2023-02-09T16:46:54.528Z,0.72
2023-02-09T16:49:27.847Z,0.69
2023-02-09T16:51:57.637Z,0.65
2023-02-09T16:54:25.411Z,0.59
2023-02-09T16:56:54.558Z,0.55
2023-02-09T16:59:22.589Z,0.50
2023-02-09T17:01:51.482Z,0.42
2023-02-09T17:04:19.689Z,0.35
2023-02-09T17:06:50.659Z,0.27
2023-02-09T17:09:18.572Z,0.18
2023-02-09T17:11:46.517Z,0.11
2023-02-09T17:14:14.673Z,0.06
2023-02-09T17:16:44.579Z,0.03
2023-02-09T17:19:15.235Z,0.02
2023-02-09T17:21:43.108Z,-0.00
2023-02-09T17:24:15.845Z,-0.02
2023-02-09T17:26:44.617Z,-0.05
2023-02-09T17:29:12.572Z,-0.08
2023-02-09T17:31:52.956Z,-0.10
2023-02-09T17:34:27.329Z,-0.14
2023-02-09T17:36:56.210Z,-0.17
2023-02-09T17:39:24.315Z,-0.19
2023-02-09T17:41:52.205Z,-0.21
2023-02-09T17:44:44.664Z,-0.22
2023-02-09T17:47:16.409Z,-0.25
2023-02-09T17:49:44.827Z,-0.28
2023-02-09T17:52:17.806Z,-0.30
2023-02-09T17:54:45.686Z,-0.33
2023-02-09T17:57:14.454Z,-0.37
2023-02-09T17:59:42.679Z,-0.40
2023-02-09T18:02:15.382Z,-0.42
2023-02-09T18:04:43.682Z,-0.47
2023-02-09T18:07:12.748Z,-0.51
2023-02-09T18:09:40.731Z,-0.53
2023-02-09T18:12:29.260Z,-0.54
2023-02-09T18:14:57.109Z,-0.55
2023-02-09T18:17:25.023Z,-0.57
2023-02-09T18:19:53.230Z,-0.60
2023-02-09T18:22:21.199Z,-0.63
2023-02-09T18:24:49.202Z,-0.65
2023-02-09T18:27:18.853Z,-0.69
2023-02-09T18:29:46.942Z,-0.75
2023-02-09T18:32:15.768Z,-0.81
2023-02-09T18:34:44.116Z,-0.81
2023-02-09T18:37:13.481Z,-0.74
2023-02-09T18:39:46.210Z,-0.68
2023-02-09T18:42:15.505Z,-0.68
2023-02-09T18:44:43.353Z,-0.66
2023-02-09T18:47:11.776Z,-0.65
2023-02-09T18:49:39.529Z,-0.64
2023-02-09T18:52:08.559Z,-0.63
2023-02-09T18:54:36.665Z,-0.64
2023-02-09T18:57:04.486Z,-0.67
2023-02-09T18:59:32.748Z,-0.70
2023-02-09T19:02:00.828Z,-0.72
2023-02-09T19:04:28.842Z,-0.73
2023-02-09T19:06:56.790Z,-0.77
2023-02-09T19:09:25.068Z,-0.80
2023-02-09T19:11:52.939Z,-0.83
2023-02-09T19:14:38.963Z,-0.88
2023-02-09T19:17:07.901Z,-0.92
2023-02-09T19:19:35.823Z,-0.97
2023-02-09T19:22:03.740Z,-1.03
2023-02-09T19:24:31.872Z,-1.05
2023-02-09T19:27:00.033Z,-1.09
2023-02-09T19:29:29.115Z,-1.14
2023-02-09T19:31:57.170Z,-1.18
2023-02-09T19:34:25.003Z,-1.21
2023-02-09T19:36:53.210Z,-1.26
2023-02-09T19:39:21.074Z,-1.31
2023-02-09T19:41:49.219Z,-1.37
2023-02-09T19:44:17.557Z,-1.42
2023-02-09T19:46:45.875Z,-1.50
2023-02-09T19:49:13.797Z,-1.56
2023-02-09T19:51:41.804Z,-1.62
2023-02-09T19:54:09.738Z,-1.66
2023-02-09T19:56:37.657Z,-1.69
2023-02-09T19:59:05.345Z,-1.74
2023-02-09T20:01:33.607Z,-1.80
2023-02-09T20:04:01.472Z,-1.87
2023-02-09T20:06:30.976Z,-1.90
2023-02-09T20:08:59.008Z,-1.92
2023-02-09T20:11:27.245Z,-1.95
2023-02-09T20:13:55.310Z,-1.98
2023-02-09T20:16:24.697Z,-1.99
2023-02-09T20:18:53.597Z,-2.01
2023-02-09T20:21:22.845Z,-2.02
2023-02-09T20:23:55.402Z,-2.05
2023-02-09T20:26:26.599Z,-2.11
2023-02-09T20:28:55.356Z,-2.18
2023-02-09T20:31:24.867Z,-2.25
2023-02-09T20:33:53.197Z,-2.32
2023-02-09T20:36:23.236Z,-2.40
2023-02-09T20:38:52.816Z,-2.49
2023-02-09T20:41:20.528Z,-2.55
2023-02-09T20:44:06.809Z,-2.54
2023-02-09T20:46:55.980Z,-2.53
2023-02-09T20:49:25.935Z,-2.55
2023-02-09T20:51:53.948Z,-2.59
2023-02-09T20:54:21.867Z,-2.62
2023-02-09T20:56:50.094Z,-2.63
2023-02-09T20:59:18.055Z,-2.63
2023-02-09T21:01:46.250Z,-2.64
2023-02-09T21:04:15.174Z,-2.63
2023-02-09T21:06:43.078Z,-2.63
2023-02-09T21:09:12.801Z,-2.65
2023-02-09T21:11:41.489Z,-2.67
2023-02-09T21:14:21.622Z,-2.65
2023-02-09T21:16:56.440Z,-2.66
2023-02-09T21:19:24.882Z,-2.67
2023-02-09T21:21:52.732Z,-2.70
2023-02-09T21:24:20.771Z,-2.73
2023-02-09T21:26:48.557Z,-2.77
2023-02-09T21:29:16.505Z,-2.79
2023-02-09T21:31:44.942Z,-2.83
2023-02-09T21:34:15.720Z,-2.88
2023-02-09T21:36:44.109Z,-2.92
2023-02-09T21:39:12.366Z,-2.97
2023-02-09T21:41:58.687Z,-3.00
2023-02-09T21:44:26.622Z,-3.06
2023-02-09T21:46:54.927Z,-3.06
2023-02-09T21:49:23.032Z,-3.10
2023-02-09T21:51:50.962Z,-3.13
2023-02-09T21:54:18.890Z,-3.14
2023-02-09T21:56:46.821Z,-3.16
2023-02-09T21:59:14.599Z,-3.17
2023-02-09T22:01:43.162Z,-3.22
2023-02-09T22:04:11.058Z,-3.23
2023-02-09T22:06:39.157Z,-3.24
2023-02-09T22:09:07.672Z,-3.26
2023-02-09T22:11:35.711Z,-3.27
2023-02-09T22:14:04.457Z,-3.29
2023-02-09T22:16:32.292Z,-3.30
2023-02-09T22:19:00.227Z,-3.34
2023-02-09T22:21:28.276Z,-3.38
2023-02-09T22:23:56.232Z,-3.40
2023-02-09T22:26:24.143Z,-3.42
2023-02-09T22:28:52.319Z,-3.42
2023-02-09T22:31:21.221Z,-3.41
2023-02-09T22:33:53.965Z,-3.41
2023-02-09T22:36:23.438Z,-3.39
2023-02-09T22:38:51.253Z,-3.37
2023-02-09T22:41:23.985Z,-3.36
2023-02-09T22:43:53.878Z,-3.35
2023-02-09T22:46:23.281Z,-3.35
2023-02-09T22:48:52.064Z,-3.34
2023-02-09T22:51:20.402Z,-3.36
2023-02-09T22:53:48.385Z,-3.40
2023-02-09T22:56:16.387Z,-3.44
2023-02-09T22:58:44.957Z,-3.45
2023-02-09T23:01:13.626Z,-3.48
2023-02-09T23:03:41.459Z,-3.51
2023-02-09T23:06:11.777Z,-3.52
2023-02-09T23:08:39.593Z,-3.52
2023-02-09T23:11:09.965Z,-3.52
2023-02-09T23:13:38.427Z,-3.52
2023-02-09T23:16:16.987Z,-3.52
2023-02-09T23:18:52.941Z,-3.51
2023-02-09T23:21:22.960Z,-3.49
2023-02-09T23:23:51.115Z,-3.49
2023-02-09T23:26:19.501Z,-3.52
2023-02-09T23:28:48.014Z,-3.57
2023-02-09T23:31:17.461Z,-3.62
2023-02-09T23:33:45.764Z,-3.64
2023-02-09T23:36:16.411Z,-3.69
2023-02-09T23:38:44.938Z,-3.75
2023-02-09T23:41:14.382Z,-3.80
2023-02-09T23:43:42.769Z,-3.86
2023-02-09T23:46:12.323Z,-3.91
2023-02-09T23:48:40.441Z,-3.94
2023-02-09T23:51:11.505Z,-3.99
2023-02-09T23:53:39.554Z,-4.02
2023-02-09T23:56:07.896Z,-4.05
2023-02-09T23:58:37.674Z,-4.11
